createdAt,value
2018-12-08T00:00:59.177Z,111.47
2018-12-08T00:03:32.440Z,179.20
2018-12-08T00:06:06.729Z,64.83
2018-12-08T00:08:41.021Z,36.83
2018-12-08T00:11:13.506Z,30.33
2018-12-08T00:13:46.830Z,55.50
2018-12-08T00:16:19.352Z,85.70
2018-12-08T00:18:53.493Z,87.60
2018-12-08T00:21:32.334Z,38.67
2018-12-08T00:24:07.839Z,60.60
2018-12-08T00:26:47.002Z,46.93
2018-12-08T00:29:21.016Z,34.13
2018-12-08T00:31:54.134Z,27.13
2018-12-08T00:34:27.027Z,78.33
2018-12-08T00:37:01.061Z,56.30
2018-12-08T00:39:33.948Z,39.23
2018-12-08T00:42:06.291Z,40.13
2018-12-08T00:44:38.603Z,42.93
2018-12-08T00:47:10.675Z,28.30
2018-12-08T00:49:44.457Z,51.33
2018-12-08T00:52:16.924Z,64.83
2018-12-08T00:54:49.212Z,74.23
2018-12-08T00:57:21.566Z,76.67
2018-12-08T00:59:54.635Z,102.47
2018-12-08T01:02:27.002Z,116.77
2018-12-08T01:05:00.292Z,111.87
2018-12-08T01:07:33.491Z,92.53
2018-12-08T01:10:07.416Z,89.23
2018-12-08T01:12:39.884Z,88.33
2018-12-08T01:15:15.841Z,72.50
2018-12-08T01:17:48.467Z,59.07
2018-12-08T01:20:25.532Z,60.23
2018-12-08T01:26:24.970Z,59.00
2018-12-08T01:29:01.112Z,68.20
2018-12-08T01:31:34.738Z,49.67
2018-12-08T01:34:07.547Z,64.33
2018-12-08T01:40:02.715Z,65.90
2018-12-08T01:42:36.748Z,57.20
2018-12-08T01:45:11.468Z,57.83
2018-12-08T01:47:44.393Z,55.20
2018-12-08T01:50:21.892Z,45.07
2018-12-08T01:52:55.636Z,53.10
2018-12-08T01:55:31.149Z,46.83
2018-12-08T01:58:04.129Z,52.47
2018-12-08T02:00:40.768Z,50.13
2018-12-08T02:03:14.812Z,51.83
2018-12-08T02:05:49.611Z,58.83
2018-12-08T02:08:27.211Z,39.53
2018-12-08T02:11:05.637Z,30.77
2018-12-08T02:13:38.906Z,37.63
2018-12-08T02:16:14.168Z,32.37
2018-12-08T02:18:49.191Z,30.60
2018-12-08T02:21:26.552Z,31.00
2018-12-08T02:24:00.445Z,29.27
2018-12-08T02:30:11.490Z,49.83
2018-12-08T02:32:53.893Z,43.03
2018-12-08T02:35:26.936Z,39.90
2018-12-08T02:38:00.861Z,55.00
2018-12-08T02:40:35.359Z,45.17
2018-12-08T02:46:30.042Z,43.47
2018-12-08T02:49:05.241Z,40.07
2018-12-08T02:51:40.155Z,44.27
2018-12-08T02:54:12.918Z,49.07
2018-12-08T02:56:49.311Z,50.43
2018-12-08T02:59:22.964Z,54.03
2018-12-08T03:01:57.107Z,48.13
2018-12-08T03:04:33.223Z,44.60
2018-12-08T03:07:41.534Z,54.13
2018-12-08T03:10:15.466Z,47.17
2018-12-08T03:12:50.708Z,35.87
2018-12-08T03:15:26.894Z,38.63
2018-12-08T03:17:59.665Z,50.23
2018-12-08T03:20:33.201Z,52.07
2018-12-08T03:23:06.166Z,44.43
2018-12-08T03:25:40.269Z,39.40
2018-12-08T03:28:12.994Z,33.07
2018-12-08T03:30:46.275Z,29.13
2018-12-08T03:33:19.011Z,23.87
2018-12-08T03:35:52.245Z,33.83
2018-12-08T03:38:24.998Z,26.37
2018-12-08T03:40:58.504Z,26.30
2018-12-08T03:43:31.921Z,23.93
2018-12-08T03:46:05.211Z,19.83
2018-12-08T03:48:38.452Z,24.20
2018-12-08T03:51:14.208Z,30.13
2018-12-08T03:53:51.234Z,24.13
2018-12-08T03:56:27.516Z,22.33
2018-12-08T03:59:02.442Z,28.10
2018-12-08T04:01:38.471Z,23.57
2018-12-08T04:04:13.815Z,26.83
2018-12-08T04:06:51.934Z,25.47
2018-12-08T04:09:25.477Z,20.97
2018-12-08T04:12:01.491Z,22.00
2018-12-08T04:14:38.932Z,20.57
2018-12-08T04:17:13.147Z,25.60
2018-12-08T04:19:45.709Z,25.47
2018-12-08T04:29:08.225Z,20.90
2018-12-08T04:31:40.587Z,16.70
2018-12-08T04:34:12.991Z,17.07
2018-12-08T04:36:45.345Z,20.97
2018-12-08T04:39:20.105Z,22.23
2018-12-08T04:41:53.602Z,20.33
2018-12-08T04:44:29.167Z,21.60
2018-12-08T04:47:01.537Z,24.03
2018-12-08T04:52:56.291Z,24.50
2018-12-08T04:55:30.758Z,29.87
2018-12-08T04:58:03.607Z,21.60
2018-12-08T05:00:37.745Z,21.70
2018-12-08T05:03:11.176Z,28.23
2018-12-08T05:05:44.136Z,24.43
2018-12-08T05:08:17.310Z,24.10
2018-12-08T05:14:12.630Z,39.37
2018-12-08T05:16:44.769Z,50.13
2018-12-08T05:19:16.896Z,63.67
2018-12-08T05:21:49.395Z,190.17
2018-12-08T05:24:21.742Z,266.83
2018-12-08T05:26:54.910Z,251.43
2018-12-08T05:29:27.244Z,186.67
2018-12-08T05:31:59.439Z,154.57
2018-12-08T05:34:31.745Z,84.63
2018-12-08T05:37:04.123Z,51.50
2018-12-08T05:39:36.618Z,34.23
2018-12-08T05:42:09.829Z,26.37
2018-12-08T05:44:42.221Z,25.93
2018-12-08T05:47:14.750Z,26.73
2018-12-08T05:49:47.008Z,24.53
2018-12-08T05:52:19.266Z,22.60
2018-12-08T05:54:51.767Z,23.77
2018-12-08T05:57:26.477Z,28.27
2018-12-08T06:00:01.366Z,23.70
2018-12-08T06:02:33.768Z,27.13
2018-12-08T06:05:05.891Z,26.37
2018-12-08T06:07:38.179Z,28.47
2018-12-08T06:10:10.603Z,30.70
2018-12-08T06:12:42.939Z,25.77
2018-12-08T06:15:15.042Z,23.07
2018-12-08T06:17:47.171Z,24.37
2018-12-08T06:20:19.465Z,26.97
2018-12-08T06:22:51.663Z,22.87
2018-12-08T06:25:29.757Z,24.57
2018-12-08T06:28:25.592Z,20.10
2018-12-08T06:30:58.254Z,19.63
2018-12-08T06:33:31.584Z,21.40
2018-12-08T06:36:03.806Z,24.13
2018-12-08T06:38:36.001Z,20.30
2018-12-08T06:41:08.699Z,24.73
2018-12-08T06:43:40.786Z,23.97
2018-12-08T06:46:14.066Z,19.13
2018-12-08T06:52:07.805Z,26.57
2018-12-08T06:54:40.238Z,21.70
2018-12-08T06:57:12.744Z,22.87
2018-12-08T06:59:45.178Z,25.97
2018-12-08T07:02:17.700Z,19.53
2018-12-08T07:04:50.704Z,41.27
2018-12-08T07:07:24.266Z,207.23
2018-12-08T07:09:58.100Z,100.10
2018-12-08T07:12:30.691Z,55.53
2018-12-08T07:15:04.137Z,39.53
2018-12-08T07:17:37.904Z,31.40
2018-12-08T07:20:10.681Z,25.17
2018-12-08T07:22:43.205Z,24.30
2018-12-08T07:25:15.753Z,27.03
2018-12-08T07:27:48.253Z,31.00
2018-12-08T07:30:20.774Z,77.17
2018-12-08T07:32:54.274Z,203.93
2018-12-08T07:35:26.771Z,196.13
2018-12-08T07:38:00.225Z,85.83
2018-12-08T07:40:32.869Z,61.50
2018-12-08T07:43:05.460Z,49.83
2018-12-08T07:45:38.005Z,40.23
2018-12-08T07:48:11.072Z,35.77
2018-12-08T07:50:43.637Z,41.67
2018-12-08T07:53:17.847Z,40.83
2018-12-08T07:55:50.315Z,35.17
2018-12-08T07:58:22.764Z,39.60
2018-12-08T08:00:56.551Z,60.83
2018-12-08T08:03:29.040Z,66.10
2018-12-08T08:06:01.735Z,64.23
2018-12-08T08:08:34.188Z,73.47
2018-12-08T08:11:07.618Z,67.83
2018-12-08T08:13:40.083Z,42.73
2018-12-08T08:16:12.550Z,47.47
2018-12-08T08:18:44.977Z,38.47
2018-12-08T08:21:17.634Z,37.17
2018-12-08T08:23:50.047Z,30.63
2018-12-08T08:26:22.490Z,37.33
2018-12-08T08:28:55.020Z,34.90
2018-12-08T08:31:28.571Z,31.77
2018-12-08T08:34:10.429Z,34.87
2018-12-08T08:36:43.113Z,35.90
2018-12-08T08:39:15.765Z,34.80
2018-12-08T08:41:48.393Z,29.57
2018-12-08T08:44:28.710Z,29.10
2018-12-08T08:47:11.364Z,35.33
2018-12-08T08:49:48.123Z,33.60
2018-12-08T08:52:26.485Z,32.93
2018-12-08T08:55:00.240Z,34.33
2018-12-08T08:57:33.381Z,34.80
2018-12-08T09:00:06.220Z,45.93
2018-12-08T09:02:38.726Z,33.60
2018-12-08T09:05:11.559Z,45.00
2018-12-08T09:07:44.199Z,43.40
2018-12-08T09:10:17.515Z,36.73
2018-12-08T09:12:50.104Z,38.50
2018-12-08T09:18:47.836Z,51.77
2018-12-08T09:21:20.708Z,56.73
2018-12-08T09:23:53.460Z,50.97
2018-12-08T09:29:47.131Z,114.63
2018-12-08T09:32:19.546Z,64.60
2018-12-08T09:34:51.986Z,56.70
2018-12-08T09:37:24.377Z,49.60
2018-12-08T09:39:57.335Z,47.50
2018-12-08T09:42:29.821Z,50.77
2018-12-08T09:45:02.209Z,57.10
2018-12-08T09:50:56.033Z,63.40
2018-12-08T09:53:29.118Z,53.23
2018-12-08T09:56:01.632Z,68.00
2018-12-08T09:58:34.466Z,46.73
2018-12-08T10:01:07.082Z,43.97
2018-12-08T10:03:39.658Z,50.80
2018-12-08T10:09:43.881Z,54.50
2018-12-08T10:12:16.969Z,57.30
2018-12-08T10:14:49.906Z,68.03
2018-12-08T10:17:22.910Z,62.73
2018-12-08T10:19:55.691Z,58.70
2018-12-08T10:22:28.702Z,57.13
2018-12-08T10:25:02.134Z,54.60
2018-12-08T10:27:35.044Z,48.27
2018-12-08T10:30:09.301Z,53.00
2018-12-08T10:32:42.294Z,45.53
2018-12-08T10:38:47.385Z,50.73
2018-12-08T10:41:20.161Z,61.53
2018-12-08T10:43:52.828Z,57.30
2018-12-08T10:46:25.621Z,59.07
2018-12-08T10:48:58.437Z,56.80
2018-12-08T10:52:04.048Z,54.57
2018-12-08T10:54:36.632Z,61.20
2018-12-08T10:57:09.173Z,58.93
2018-12-08T10:59:42.493Z,61.70
2018-12-08T11:02:19.411Z,52.67
2018-12-08T11:04:52.981Z,54.80
2018-12-08T11:07:25.672Z,60.17
2018-12-08T11:09:59.060Z,49.50
2018-12-08T11:12:33.008Z,61.70
2018-12-08T11:15:05.817Z,73.67
2018-12-08T11:17:38.385Z,70.87
2018-12-08T11:23:32.495Z,58.33
2018-12-08T11:29:26.756Z,54.60
2018-12-08T11:31:59.651Z,49.17
2018-12-08T11:34:32.799Z,50.67
2018-12-08T11:37:05.744Z,50.70
2018-12-08T11:39:38.870Z,58.60
2018-12-08T11:42:11.876Z,56.97
2018-12-08T11:44:46.082Z,52.70
2018-12-08T11:47:19.896Z,59.43
2018-12-08T11:49:53.022Z,56.87
2018-12-08T11:52:26.085Z,61.73
2018-12-08T11:54:59.586Z,57.70
2018-12-08T11:57:32.739Z,58.90
2018-12-08T12:00:06.466Z,65.07
2018-12-08T12:02:39.363Z,64.90
2018-12-08T12:05:12.282Z,60.37
2018-12-08T12:07:46.476Z,58.40
2018-12-08T12:10:19.404Z,48.50
2018-12-08T12:12:52.632Z,48.73
2018-12-08T12:15:30.419Z,50.20
2018-12-08T12:18:03.539Z,49.33
2018-12-08T12:20:36.710Z,46.97
2018-12-08T12:23:09.863Z,45.60
2018-12-08T12:25:43.312Z,50.77
2018-12-08T12:28:16.534Z,55.30
2018-12-08T12:30:50.455Z,47.13
2018-12-08T12:33:23.512Z,50.87
2018-12-08T12:35:59.820Z,47.20
2018-12-08T12:38:32.920Z,41.33
2018-12-08T12:41:06.577Z,43.60
2018-12-08T12:43:39.760Z,50.43
2018-12-08T12:46:12.859Z,37.20
2018-12-08T12:48:46.013Z,36.00
2018-12-08T12:51:20.161Z,39.43
2018-12-08T12:53:53.425Z,33.97
2018-12-08T12:56:27.053Z,31.67
2018-12-08T12:59:00.284Z,29.03
2018-12-08T13:01:33.673Z,23.33
2018-12-08T13:04:06.766Z,27.80
2018-12-08T13:06:39.851Z,30.93
2018-12-08T13:09:17.158Z,27.17
2018-12-08T13:11:50.736Z,56.73
2018-12-08T13:14:26.307Z,69.50
2018-12-08T13:17:01.796Z,49.50
2018-12-08T13:19:45.934Z,40.03
2018-12-08T13:22:20.175Z,27.27
2018-12-08T13:28:24.162Z,21.60
2018-12-08T13:30:56.970Z,28.07
2018-12-08T13:33:30.270Z,20.80
2018-12-08T13:36:03.977Z,20.40
2018-12-08T13:38:37.461Z,29.17
2018-12-08T13:41:10.172Z,21.20
2018-12-08T13:43:45.185Z,18.80
2018-12-08T13:46:17.784Z,19.47
2018-12-08T13:48:50.545Z,17.70
2018-12-08T13:51:23.221Z,18.93
2018-12-08T13:53:56.738Z,16.83
2018-12-08T13:56:35.532Z,20.03
2018-12-08T13:59:10.582Z,17.17
2018-12-08T14:01:52.180Z,12.23
2018-12-08T14:04:24.810Z,13.00
2018-12-08T14:07:04.737Z,15.07
2018-12-08T14:09:37.431Z,18.50
2018-12-08T14:12:10.713Z,10.67
2018-12-08T14:14:43.306Z,10.73
2018-12-08T14:17:15.924Z,11.30
2018-12-08T14:19:48.502Z,9.97
2018-12-08T14:22:21.060Z,8.93
2018-12-08T14:24:53.638Z,7.50
2018-12-08T14:27:27.615Z,11.83
2018-12-08T14:30:00.173Z,7.27
2018-12-08T14:32:32.787Z,7.77
2018-12-08T14:35:09.024Z,13.57
2018-12-08T14:37:42.348Z,13.27
2018-12-08T14:40:14.909Z,9.53
2018-12-08T14:42:51.846Z,10.20
2018-12-08T14:45:24.415Z,9.83
2018-12-08T14:47:56.975Z,10.50
2018-12-08T14:50:32.573Z,9.13
2018-12-08T14:53:05.634Z,10.87
2018-12-08T14:55:38.935Z,9.67
2018-12-08T14:58:12.884Z,9.70
2018-12-08T15:00:50.014Z,9.73
2018-12-08T15:03:27.262Z,14.67
2018-12-08T15:06:18.311Z,16.00
2018-12-08T15:09:06.744Z,11.90
2018-12-08T15:12:13.255Z,11.40
2018-12-08T15:14:55.384Z,7.57
2018-12-08T15:20:25.551Z,15.40
2018-12-08T15:23:02.199Z,12.60
2018-12-08T15:25:46.440Z,12.50
2018-12-08T15:28:41.302Z,14.60
2018-12-08T15:37:32.910Z,12.27
2018-12-08T15:51:36.453Z,10.03
2018-12-08T15:54:11.306Z,16.70
2018-12-08T15:56:45.459Z,18.43
2018-12-08T15:59:18.354Z,10.57
2018-12-08T16:01:56.084Z,11.03
2018-12-08T16:04:32.120Z,12.18
2018-12-08T16:07:06.495Z,11.43
2018-12-08T16:09:40.174Z,11.97
2018-12-08T16:12:14.255Z,13.23
2018-12-08T16:14:59.626Z,10.20
2018-12-08T16:17:32.384Z,10.70
2018-12-08T16:20:12.072Z,10.13
2018-12-08T16:22:46.344Z,8.67
2018-12-08T16:25:22.417Z,10.95
2018-12-08T16:27:57.482Z,11.33
2018-12-08T16:30:30.421Z,9.28
2018-12-08T16:33:04.198Z,8.55
2018-12-08T16:35:36.998Z,11.80
2018-12-08T16:38:11.594Z,6.45
2018-12-08T16:40:44.293Z,18.10
2018-12-08T16:43:23.835Z,12.10
2018-12-08T16:46:02.004Z,8.93
2018-12-08T16:48:36.117Z,8.17
2018-12-08T16:51:08.764Z,12.68
2018-12-08T16:53:56.593Z,10.78
2018-12-08T16:56:32.007Z,9.48
2018-12-08T16:59:05.579Z,7.83
2018-12-08T17:01:38.221Z,11.03
2018-12-08T17:04:10.796Z,13.68
2018-12-08T17:06:44.785Z,6.60
2018-12-08T17:09:17.880Z,8.78
2018-12-08T17:11:50.900Z,7.10
2018-12-08T17:14:23.808Z,8.70
2018-12-08T17:16:57.554Z,14.95
2018-12-08T17:19:32.294Z,7.62
2018-12-08T17:22:05.439Z,24.63
2018-12-08T17:24:38.168Z,8.05
2018-12-08T17:27:11.445Z,7.78
2018-12-08T17:29:44.838Z,7.80
2018-12-08T17:32:17.430Z,8.23
2018-12-08T17:34:50.041Z,12.68
2018-12-08T17:37:24.770Z,10.35
2018-12-08T17:39:57.429Z,13.20
2018-12-08T17:42:30.183Z,12.18
2018-12-08T17:45:04.412Z,7.00
2018-12-08T17:47:38.440Z,9.35
2018-12-08T17:53:42.440Z,7.83
2018-12-08T17:56:15.208Z,9.00
2018-12-08T17:58:59.306Z,10.13
2018-12-08T18:01:35.804Z,15.43
2018-12-08T18:04:08.409Z,11.05
2018-12-08T18:06:44.749Z,13.40
2018-12-08T18:09:17.428Z,13.55
2018-12-08T18:11:51.388Z,12.90
2018-12-08T18:17:46.308Z,14.00
2018-12-08T18:20:19.200Z,9.78
2018-12-08T18:22:51.802Z,15.70
2018-12-08T18:25:24.499Z,13.40
2018-12-08T18:27:57.189Z,17.35
2018-12-08T18:30:29.905Z,18.23
2018-12-08T18:33:07.011Z,8.68
2018-12-08T18:35:41.524Z,8.35
2018-12-08T18:38:14.252Z,9.03
2018-12-08T18:40:46.959Z,6.60
2018-12-08T18:43:21.137Z,14.90
2018-12-08T18:45:53.969Z,8.10
2018-12-08T18:48:27.404Z,10.20
2018-12-08T18:50:59.978Z,9.05
2018-12-08T18:53:33.360Z,7.30
2018-12-08T18:56:06.071Z,11.40
2018-12-08T18:58:38.780Z,11.90
2018-12-08T19:01:11.940Z,9.25
2018-12-08T19:03:47.377Z,10.17
2018-12-08T19:06:20.217Z,10.43
2018-12-08T19:08:53.181Z,12.37
2018-12-08T19:11:27.880Z,11.25
2018-12-08T19:14:01.250Z,8.95
2018-12-08T19:16:34.750Z,8.28
2018-12-08T19:19:09.511Z,10.82
2018-12-08T19:21:42.168Z,11.73
2018-12-08T19:24:14.765Z,16.05
2018-12-08T19:26:47.394Z,12.07
2018-12-08T19:29:19.962Z,9.85
2018-12-08T19:31:52.718Z,10.83
2018-12-08T19:34:25.369Z,10.15
2018-12-08T19:36:58.015Z,16.23
2018-12-08T19:39:30.675Z,10.38
2018-12-08T19:42:03.402Z,15.48
2018-12-08T19:44:37.341Z,11.83
2018-12-08T19:47:09.908Z,11.03
2018-12-08T19:49:43.886Z,9.75
2018-12-08T19:52:19.751Z,13.43
2018-12-08T19:58:35.864Z,13.22
2018-12-08T20:01:08.810Z,19.37
2018-12-08T20:03:42.038Z,11.85
2018-12-08T20:06:14.954Z,11.40
2018-12-08T20:08:49.586Z,11.90
2018-12-08T20:11:24.170Z,9.65
2018-12-08T20:15:00.015Z,11.05
2018-12-08T20:17:34.243Z,19.77
2018-12-08T20:20:07.339Z,9.88
2018-12-08T20:22:40.754Z,11.55
2018-12-08T20:25:13.691Z,13.50
2018-12-08T20:27:46.492Z,13.10
2018-12-08T20:30:19.211Z,11.87
2018-12-08T20:32:52.793Z,15.87
2018-12-08T20:35:26.509Z,18.87
2018-12-08T20:37:59.370Z,10.95
2018-12-08T20:40:32.087Z,14.95
2018-12-08T20:43:04.854Z,18.07
2018-12-08T20:45:37.606Z,19.50
2018-12-08T20:48:12.324Z,12.03
2018-12-08T20:50:46.041Z,15.43
2018-12-08T20:53:21.187Z,13.83
2018-12-08T20:55:54.207Z,15.45
2018-12-08T20:58:29.116Z,13.25
2018-12-08T21:01:02.065Z,14.83
2018-12-08T21:03:35.738Z,13.98
2018-12-08T21:06:08.889Z,17.23
2018-12-08T21:08:43.166Z,9.13
2018-12-08T21:11:17.065Z,19.48
2018-12-08T21:13:51.122Z,12.50
2018-12-08T21:16:24.851Z,12.65
2018-12-08T21:18:57.692Z,27.30
2018-12-08T21:21:36.767Z,16.90
2018-12-08T21:24:15.661Z,19.60
2018-12-08T21:26:54.127Z,21.33
2018-12-08T21:29:27.937Z,14.83
2018-12-08T21:32:01.246Z,15.38
2018-12-08T21:34:38.422Z,15.40
2018-12-08T21:37:12.228Z,17.92
2018-12-08T21:39:49.328Z,13.07
2018-12-08T21:42:30.342Z,21.60
2018-12-08T21:45:09.588Z,21.52
2018-12-08T21:47:47.520Z,18.57
2018-12-08T21:50:23.146Z,16.65
2018-12-08T22:00:34.559Z,12.03
2018-12-08T22:03:09.225Z,18.40
2018-12-08T22:05:45.878Z,12.87
2018-12-08T22:08:20.928Z,16.02
2018-12-08T22:10:54.840Z,21.40
2018-12-08T22:13:28.870Z,16.15
2018-12-08T22:16:02.735Z,10.55
2018-12-08T22:18:39.606Z,19.70
2018-12-08T22:21:20.148Z,12.05
2018-12-08T22:23:54.559Z,12.47
2018-12-08T22:26:42.770Z,18.27
2018-12-08T22:29:19.198Z,26.67
2018-12-08T22:31:54.408Z,24.37
2018-12-08T22:34:28.039Z,26.37
2018-12-08T22:37:06.300Z,25.30
2018-12-08T22:39:42.301Z,25.27
2018-12-08T22:42:15.349Z,31.40
2018-12-08T22:44:51.048Z,27.20
2018-12-08T22:47:32.781Z,26.80
2018-12-08T22:50:07.275Z,28.17
2018-12-08T22:52:40.940Z,34.10
2018-12-08T22:55:15.527Z,39.67
2018-12-08T22:57:48.410Z,34.63
2018-12-08T23:00:48.719Z,33.57
2018-12-08T23:03:22.704Z,34.60
2018-12-08T23:05:56.436Z,34.30
2018-12-08T23:08:30.939Z,35.80
2018-12-08T23:11:05.811Z,40.83
2018-12-08T23:13:41.080Z,36.07
2018-12-08T23:16:15.508Z,32.90
2018-12-08T23:18:49.562Z,33.53
2018-12-08T23:21:29.308Z,38.47
2018-12-08T23:26:42.930Z,35.90
2018-12-08T23:29:16.490Z,38.57
2018-12-08T23:31:59.850Z,37.80
2018-12-08T23:34:33.634Z,44.77
2018-12-08T23:37:21.716Z,42.97
2018-12-08T23:42:49.327Z,42.00
2018-12-08T23:48:27.123Z,45.73
2018-12-08T23:51:10.783Z,41.23
2018-12-08T23:53:46.899Z,46.67
2018-12-08T23:56:22.040Z,51.60
